createdAt,value
2024-04-14T00:01:46.577Z,12.80
2024-04-14T00:04:15.023Z,15.05
2024-04-14T00:06:43.883Z,12.18
2024-04-14T00:09:15.758Z,12.85
2024-04-14T00:11:53.358Z,13.30
2024-04-14T00:17:12.462Z,12.77
2024-04-14T00:19:43.799Z,12.70
2024-04-14T00:22:15.797Z,11.73
2024-04-14T00:24:44.111Z,11.50
2024-04-14T00:27:11.134Z,12.98
2024-04-14T00:29:42.823Z,13.43
2024-04-14T00:32:11.143Z,12.52
2024-04-14T00:34:39.202Z,11.88
2024-04-14T00:37:07.688Z,12.70
2024-04-14T00:39:36.073Z,13.73
2024-04-14T00:42:07.289Z,12.85
2024-04-14T00:44:50.126Z,12.98
2024-04-14T00:47:21.649Z,11.13
2024-04-14T00:49:51.392Z,11.93
2024-04-14T00:52:25.355Z,13.02
2024-04-14T00:54:53.746Z,11.60
2024-04-14T00:57:28.272Z,12.80
2024-04-14T00:59:59.028Z,13.50
2024-04-14T01:02:30.655Z,14.20
2024-04-14T01:05:01.959Z,13.93
2024-04-14T01:10:24.891Z,13.73
2024-04-14T01:12:52.868Z,12.68
2024-04-14T01:15:21.358Z,11.35
2024-04-14T01:17:51.845Z,12.35
2024-04-14T01:20:29.472Z,11.93
2024-04-14T01:22:57.876Z,13.55
2024-04-14T01:25:27.315Z,12.15
2024-04-14T01:27:55.418Z,11.77
2024-04-14T01:30:23.814Z,12.07
2024-04-14T01:32:54.998Z,12.45
2024-04-14T01:35:23.143Z,16.65
2024-04-14T01:37:51.126Z,12.07
2024-04-14T01:40:19.974Z,13.40
2024-04-14T01:45:30.368Z,11.73
2024-04-14T01:47:58.362Z,12.80
2024-04-14T01:52:54.757Z,12.35
2024-04-14T01:57:54.297Z,13.05
2024-04-14T02:00:22.464Z,13.32
2024-04-14T02:02:53.813Z,12.80
2024-04-14T02:05:25.521Z,12.95
2024-04-14T02:07:56.797Z,11.00
2024-04-14T02:10:25.263Z,11.52
2024-04-14T02:12:56.156Z,13.00
2024-04-14T02:15:24.740Z,12.23
2024-04-14T02:17:55.409Z,12.60
2024-04-14T02:23:11.137Z,12.68
2024-04-14T02:25:45.606Z,12.57
2024-04-14T02:28:16.716Z,13.05
2024-04-14T02:30:44.784Z,14.50
2024-04-14T02:33:15.711Z,12.60
2024-04-14T02:35:52.343Z,11.95
2024-04-14T02:38:23.676Z,11.45
2024-04-14T02:41:01.105Z,12.98
2024-04-14T02:43:31.686Z,12.88
2024-04-14T02:46:00.051Z,11.30
2024-04-14T02:48:27.246Z,10.27
2024-04-14T02:50:57.039Z,11.48
2024-04-14T02:53:35.650Z,12.50
2024-04-14T02:56:19.433Z,12.55
2024-04-14T02:58:53.491Z,13.80
2024-04-14T03:01:25.112Z,12.52
2024-04-14T03:03:53.381Z,12.27
2024-04-14T03:06:22.818Z,12.82
2024-04-14T03:08:49.811Z,13.40
2024-04-14T03:11:27.266Z,12.60
2024-04-14T03:13:55.804Z,12.10
2024-04-14T03:16:23.742Z,11.75
2024-04-14T03:21:20.136Z,11.70
2024-04-14T03:23:49.925Z,12.75
2024-04-14T03:26:29.307Z,12.13
2024-04-14T03:29:10.372Z,12.13
2024-04-14T03:31:40.804Z,12.20
2024-04-14T03:34:08.945Z,12.15
2024-04-14T03:36:42.970Z,11.43
2024-04-14T03:39:12.540Z,11.93
2024-04-14T03:41:39.502Z,10.80
2024-04-14T03:44:07.277Z,12.13
2024-04-14T03:46:35.590Z,11.45
2024-04-14T03:49:03.663Z,11.85
2024-04-14T03:51:31.851Z,11.50
2024-04-14T03:54:00.113Z,12.02
2024-04-14T03:56:28.488Z,11.40
2024-04-14T03:58:56.807Z,12.57
2024-04-14T04:01:24.899Z,12.30
2024-04-14T04:03:56.174Z,12.18
2024-04-14T04:06:23.277Z,13.02
2024-04-14T04:09:04.415Z,11.47
2024-04-14T04:11:41.048Z,12.30
2024-04-14T04:14:09.068Z,13.35
2024-04-14T04:19:21.567Z,12.60
2024-04-14T04:21:55.274Z,11.85
2024-04-14T04:24:25.415Z,13.60
2024-04-14T04:26:53.900Z,11.40
2024-04-14T04:29:21.616Z,11.20
2024-04-14T04:31:49.276Z,10.82
2024-04-14T04:34:16.358Z,11.20
2024-04-14T04:37:16.290Z,12.23
2024-04-14T04:39:47.449Z,12.60
2024-04-14T04:42:15.436Z,13.35
2024-04-14T04:47:22.252Z,11.10
2024-04-14T04:49:50.561Z,11.70
2024-04-14T04:52:19.143Z,11.60
2024-04-14T04:54:48.001Z,10.98
2024-04-14T04:57:18.169Z,11.30
2024-04-14T04:59:48.706Z,12.60
2024-04-14T05:02:18.580Z,11.65
2024-04-14T05:04:46.564Z,11.93
2024-04-14T05:07:13.440Z,10.70
2024-04-14T05:09:43.581Z,10.68
2024-04-14T05:12:11.175Z,12.18
2024-04-14T05:14:38.414Z,11.05
2024-04-14T05:17:08.972Z,11.68
2024-04-14T05:19:35.945Z,11.95
2024-04-14T05:22:03.807Z,12.03
2024-04-14T05:24:45.427Z,12.43
2024-04-14T05:27:15.306Z,11.07
2024-04-14T05:32:28.959Z,11.10
2024-04-14T05:34:57.127Z,10.27
2024-04-14T05:37:25.006Z,11.50
2024-04-14T05:39:53.158Z,10.95
2024-04-14T05:42:21.118Z,11.55
2024-04-14T05:44:59.545Z,10.60
2024-04-14T05:47:27.946Z,12.48
2024-04-14T05:49:57.163Z,11.18
2024-04-14T05:52:26.592Z,9.75
2024-04-14T05:57:22.382Z,10.77
2024-04-14T06:02:27.027Z,11.15
2024-04-14T06:04:57.532Z,10.40
2024-04-14T06:07:34.457Z,10.48
2024-04-14T06:10:06.631Z,9.80
2024-04-14T06:12:35.034Z,9.98
2024-04-14T06:15:03.442Z,8.15
2024-04-14T06:17:31.319Z,12.80
2024-04-14T06:20:02.521Z,10.68
2024-04-14T06:22:32.749Z,9.48
2024-04-14T06:25:01.438Z,13.10
2024-04-14T06:27:38.779Z,9.02
2024-04-14T06:32:49.924Z,9.55
2024-04-14T06:35:18.506Z,9.40
2024-04-14T06:37:46.617Z,9.55
2024-04-14T06:40:16.064Z,8.80
2024-04-14T06:45:55.860Z,8.00
2024-04-14T06:49:18.688Z,10.05
2024-04-14T06:54:45.051Z,6.90
2024-04-14T06:57:37.940Z,10.13
2024-04-14T07:00:19.884Z,8.65
2024-04-14T07:03:10.714Z,7.97
2024-04-14T07:05:41.340Z,7.90
2024-04-14T07:12:10.801Z,7.28
2024-04-14T07:15:02.866Z,6.72
2024-04-14T07:17:30.326Z,7.15
2024-04-14T07:20:22.327Z,7.50
2024-04-14T07:23:20.813Z,8.30
2024-04-14T07:28:49.593Z,7.13
2024-04-14T07:31:25.841Z,6.15
2024-04-14T07:34:19.263Z,8.05
2024-04-14T07:36:48.624Z,7.47
2024-04-14T07:40:01.314Z,4.88
2024-04-14T07:42:35.058Z,7.88
2024-04-14T07:45:03.371Z,8.30
2024-04-14T07:47:32.458Z,6.97
2024-04-14T07:50:01.819Z,7.72
2024-04-14T07:52:30.602Z,6.05
2024-04-14T07:55:01.670Z,8.38
2024-04-14T07:57:32.876Z,6.82
2024-04-14T08:00:30.934Z,7.18
2024-04-14T08:02:55.617Z,9.35
2024-04-14T08:05:24.567Z,7.63
2024-04-14T08:07:56.753Z,7.47
2024-04-14T08:10:26.229Z,7.00
2024-04-14T08:13:21.118Z,7.88
2024-04-14T08:15:49.469Z,6.38
2024-04-14T08:18:20.855Z,8.13
2024-04-14T08:20:58.583Z,9.52
2024-04-14T08:26:23.908Z,7.47
2024-04-14T08:28:52.694Z,7.72
2024-04-14T08:31:23.810Z,6.20
2024-04-14T08:33:54.222Z,8.57
2024-04-14T08:36:31.202Z,9.70
2024-04-14T08:39:00.840Z,8.35
2024-04-14T08:41:31.738Z,5.65
2024-04-14T08:44:01.292Z,6.88
2024-04-14T08:46:34.263Z,6.28
2024-04-14T08:49:16.329Z,6.28
2024-04-14T08:51:47.262Z,6.13
2024-04-14T08:54:16.069Z,6.68
2024-04-14T08:56:47.005Z,9.55
2024-04-14T08:59:28.471Z,10.77
2024-04-14T09:02:03.255Z,5.25
2024-04-14T09:04:37.290Z,6.32
2024-04-14T09:07:13.814Z,5.93
2024-04-14T09:12:40.046Z,7.45
2024-04-14T09:15:10.033Z,7.60
2024-04-14T09:17:38.843Z,6.82
2024-04-14T09:20:10.580Z,7.50
2024-04-14T09:23:04.072Z,7.80
2024-04-14T09:25:31.411Z,8.35
2024-04-14T09:28:09.161Z,7.90
2024-04-14T09:30:37.906Z,5.38
2024-04-14T09:33:07.420Z,7.72
2024-04-14T09:35:39.846Z,6.78
2024-04-14T09:38:09.141Z,7.50
2024-04-14T09:40:47.159Z,10.43
2024-04-14T09:43:19.461Z,6.22
2024-04-14T09:46:03.425Z,5.40
2024-04-14T09:48:38.915Z,6.63
2024-04-14T09:51:09.634Z,10.15
2024-04-14T09:53:46.891Z,8.73
2024-04-14T09:56:14.884Z,7.45
2024-04-14T09:58:44.202Z,8.38
2024-04-14T10:01:41.412Z,7.57
2024-04-14T10:04:12.410Z,8.82
2024-04-14T10:06:44.598Z,7.07
2024-04-14T10:09:18.984Z,7.10
2024-04-14T10:11:47.956Z,10.30
2024-04-14T10:14:17.689Z,9.43
2024-04-14T10:17:01.327Z,5.63
2024-04-14T10:19:30.974Z,8.27
2024-04-14T10:22:03.450Z,5.43
2024-04-14T10:24:34.750Z,5.65
2024-04-14T10:27:18.678Z,8.07
2024-04-14T10:29:59.648Z,7.32
2024-04-14T10:32:28.430Z,6.18
2024-04-14T10:34:57.873Z,9.50
2024-04-14T10:37:31.747Z,5.78
2024-04-14T10:39:59.938Z,6.65
2024-04-14T10:42:29.607Z,6.63
2024-04-14T10:44:58.477Z,8.93
2024-04-14T10:47:27.413Z,6.03
2024-04-14T10:49:56.172Z,10.02
2024-04-14T10:52:25.054Z,6.82
2024-04-14T10:54:53.632Z,6.35
2024-04-14T10:57:21.861Z,6.80
2024-04-14T10:59:49.943Z,7.53
2024-04-14T11:02:18.234Z,7.70
2024-04-14T11:07:37.282Z,7.30
2024-04-14T11:10:07.597Z,5.38
2024-04-14T11:12:35.431Z,5.03
2024-04-14T11:15:06.921Z,6.68
2024-04-14T11:17:36.735Z,6.70
2024-04-14T11:20:06.039Z,9.70
2024-04-14T11:22:35.621Z,6.20
2024-04-14T11:25:10.605Z,6.68
2024-04-14T11:27:40.378Z,8.48
2024-04-14T11:30:18.604Z,8.02
2024-04-14T11:32:56.931Z,7.03
2024-04-14T11:35:24.090Z,8.48
2024-04-14T11:37:55.475Z,5.20
2024-04-14T11:40:25.192Z,6.53
2024-04-14T11:42:53.452Z,7.03
2024-04-14T11:45:21.932Z,6.85
2024-04-14T11:47:50.649Z,7.20
2024-04-14T11:50:18.831Z,6.00
2024-04-14T11:52:47.774Z,5.07
2024-04-14T11:55:16.705Z,5.47
2024-04-14T11:57:45.628Z,6.72
2024-04-14T12:00:13.493Z,5.43
2024-04-14T12:02:42.055Z,6.55
2024-04-14T12:05:10.291Z,7.38
2024-04-14T12:07:39.351Z,7.63
2024-04-14T12:10:06.871Z,7.07
2024-04-14T12:12:34.823Z,5.45
2024-04-14T12:15:05.431Z,6.32
2024-04-14T12:17:33.181Z,6.53
2024-04-14T12:20:00.917Z,7.65
2024-04-14T12:22:30.797Z,6.43
2024-04-14T12:24:59.275Z,4.85
2024-04-14T12:27:36.592Z,7.85
2024-04-14T12:30:05.144Z,4.82
2024-04-14T12:32:35.674Z,7.30
2024-04-14T12:35:03.955Z,5.47
2024-04-14T12:37:31.972Z,6.75
2024-04-14T12:40:04.054Z,5.50
2024-04-14T12:42:35.945Z,6.45
2024-04-14T12:45:04.193Z,5.60
2024-04-14T12:47:32.304Z,6.40
2024-04-14T12:50:03.879Z,6.25
2024-04-14T12:52:32.611Z,5.15
2024-04-14T12:55:00.953Z,6.20
2024-04-14T12:57:31.266Z,6.13
2024-04-14T13:00:02.477Z,4.70
2024-04-14T13:02:30.896Z,7.47
2024-04-14T13:04:59.423Z,3.63
2024-04-14T13:07:29.828Z,5.70
2024-04-14T13:09:57.953Z,6.13
2024-04-14T13:12:24.799Z,6.15
2024-04-14T13:15:02.310Z,5.28
2024-04-14T13:17:39.709Z,5.88
2024-04-14T13:20:15.133Z,5.65
2024-04-14T13:22:47.793Z,5.90
2024-04-14T13:25:16.205Z,5.10
2024-04-14T13:27:44.520Z,6.38
2024-04-14T13:30:13.081Z,6.75
2024-04-14T13:32:41.573Z,4.93
2024-04-14T13:35:10.573Z,5.38
2024-04-14T13:37:39.169Z,5.25
2024-04-14T13:40:09.606Z,5.63
2024-04-14T13:42:37.950Z,4.43
2024-04-14T13:45:18.202Z,4.30
2024-04-14T13:47:47.023Z,7.93
2024-04-14T13:50:15.961Z,7.88
2024-04-14T13:52:44.877Z,7.50
2024-04-14T13:55:25.242Z,8.23
2024-04-14T13:57:53.413Z,8.60
2024-04-14T14:00:23.877Z,7.32
2024-04-14T14:02:52.474Z,5.45
2024-04-14T14:05:23.764Z,4.32
2024-04-14T14:07:52.026Z,4.90
2024-04-14T14:10:20.041Z,5.63
2024-04-14T14:12:48.101Z,5.65
2024-04-14T14:15:17.153Z,5.20
2024-04-14T14:17:48.499Z,5.15
2024-04-14T14:20:15.485Z,10.50
2024-04-14T14:22:43.964Z,8.38
2024-04-14T14:25:15.767Z,7.80
2024-04-14T14:27:47.903Z,5.57
2024-04-14T14:30:16.450Z,5.45
2024-04-14T14:32:45.098Z,5.90
2024-04-14T14:35:35.211Z,6.88
2024-04-14T14:38:04.407Z,8.35
2024-04-14T14:40:33.910Z,6.13
2024-04-14T14:43:05.773Z,6.72
2024-04-14T14:45:34.786Z,6.18
2024-04-14T14:48:04.023Z,5.07
2024-04-14T14:50:33.268Z,5.53
2024-04-14T14:53:05.347Z,7.57
2024-04-14T14:55:34.185Z,5.85
2024-04-14T14:58:02.830Z,7.10
2024-04-14T15:00:30.959Z,7.32
2024-04-14T15:03:04.457Z,5.70
2024-04-14T15:05:32.828Z,6.38
2024-04-14T15:08:14.377Z,6.55
2024-04-14T15:10:53.100Z,7.63
2024-04-14T15:13:30.994Z,6.70
2024-04-14T15:16:13.366Z,13.50
2024-04-14T15:18:44.842Z,15.20
2024-04-14T15:21:13.285Z,10.45
2024-04-14T15:23:41.823Z,8.85
2024-04-14T15:26:10.577Z,7.93
2024-04-14T15:28:38.812Z,6.03
2024-04-14T15:31:07.767Z,4.88
2024-04-14T15:33:35.992Z,5.95
2024-04-14T15:36:09.336Z,5.63
2024-04-14T15:38:40.266Z,5.32
2024-04-14T15:41:08.291Z,4.25
2024-04-14T15:43:36.064Z,6.75
2024-04-14T15:46:06.852Z,7.32
2024-04-14T15:48:34.546Z,8.57
2024-04-14T15:51:13.600Z,9.07
2024-04-14T15:53:48.614Z,7.60
2024-04-14T15:56:17.146Z,8.30
2024-04-14T15:58:45.579Z,10.45
2024-04-14T16:01:14.243Z,10.88
2024-04-14T16:03:42.625Z,11.70
2024-04-14T16:06:24.872Z,10.73
2024-04-14T16:08:56.610Z,9.88
2024-04-14T16:11:27.709Z,9.07
2024-04-14T16:13:56.247Z,10.75
2024-04-14T16:16:24.746Z,9.10
2024-04-14T16:18:52.115Z,10.75
2024-04-14T16:21:20.836Z,9.63
2024-04-14T16:23:51.284Z,11.00
2024-04-14T16:26:19.968Z,9.45
2024-04-14T16:28:57.969Z,9.68
2024-04-14T16:31:26.257Z,9.52
2024-04-14T16:33:54.549Z,14.57
2024-04-14T16:36:23.819Z,11.30
2024-04-14T16:38:52.683Z,9.93
2024-04-14T16:41:23.621Z,9.98
2024-04-14T16:44:04.957Z,10.55
2024-04-14T16:46:44.455Z,11.48
2024-04-14T16:49:33.591Z,11.18
2024-04-14T16:52:23.782Z,9.13
2024-04-14T16:54:52.613Z,10.52
2024-04-14T16:57:25.000Z,12.13
2024-04-14T16:59:58.189Z,10.98
2024-04-14T17:02:27.495Z,12.55
2024-04-14T17:04:57.207Z,10.73
2024-04-14T17:07:24.211Z,10.05
2024-04-14T17:09:53.920Z,10.48
2024-04-14T17:12:30.004Z,11.18
2024-04-14T17:14:59.397Z,11.27
2024-04-14T17:17:48.755Z,11.82
2024-04-14T17:20:20.555Z,13.93
2024-04-14T17:22:49.226Z,10.38
2024-04-14T17:25:23.411Z,12.77
2024-04-14T17:27:51.863Z,12.85
2024-04-14T17:30:19.721Z,14.95
2024-04-14T17:32:48.289Z,14.35
2024-04-14T17:35:20.441Z,14.18
2024-04-14T17:37:57.728Z,13.57
2024-04-14T17:40:26.386Z,14.90
2024-04-14T17:43:00.925Z,15.63
2024-04-14T17:45:31.571Z,13.25
2024-04-14T17:48:04.859Z,12.55
2024-04-14T17:50:34.657Z,13.75
2024-04-14T17:53:24.478Z,13.27
2024-04-14T17:55:56.909Z,13.95
2024-04-14T17:58:37.161Z,13.27
2024-04-14T18:01:06.246Z,13.35
2024-04-14T18:03:37.508Z,11.52
2024-04-14T18:06:06.435Z,14.00
2024-04-14T18:08:35.868Z,13.23
2024-04-14T18:11:04.189Z,11.60
2024-04-14T18:16:21.392Z,11.73
2024-04-14T18:18:58.796Z,13.70
2024-04-14T18:23:54.928Z,13.90
2024-04-14T18:26:23.387Z,13.35
2024-04-14T18:28:52.194Z,14.30
2024-04-14T18:31:20.280Z,12.30
2024-04-14T18:33:51.789Z,11.77
2024-04-14T18:36:19.877Z,11.55
2024-04-14T18:38:48.682Z,12.07
2024-04-14T18:41:16.632Z,12.20
2024-04-14T18:43:45.216Z,11.68
2024-04-14T18:46:13.330Z,11.80
2024-04-14T18:48:41.957Z,11.95
2024-04-14T18:51:09.894Z,11.70
2024-04-14T18:53:37.729Z,11.32
2024-04-14T18:56:07.928Z,10.27
2024-04-14T18:58:38.619Z,12.15
2024-04-14T19:01:07.332Z,12.27
2024-04-14T19:03:35.707Z,10.18
2024-04-14T19:06:08.140Z,11.68
2024-04-14T19:08:45.164Z,10.45
2024-04-14T19:11:13.725Z,10.85
2024-04-14T19:13:41.980Z,12.20
2024-04-14T19:16:10.426Z,10.75
2024-04-14T19:18:42.186Z,10.30
2024-04-14T19:21:10.626Z,11.50
2024-04-14T19:23:39.152Z,12.32
2024-04-14T19:26:28.061Z,10.45
2024-04-14T19:28:57.295Z,11.45
2024-04-14T19:31:25.563Z,11.45
2024-04-14T19:33:53.448Z,8.88
2024-04-14T19:36:21.692Z,10.30
2024-04-14T19:38:50.234Z,11.27
2024-04-14T19:41:20.151Z,10.80
2024-04-14T19:43:50.325Z,9.48
2024-04-14T19:46:20.624Z,12.02
2024-04-14T19:48:49.213Z,10.20
2024-04-14T19:51:17.999Z,9.15
2024-04-14T19:53:49.593Z,9.52
2024-04-14T19:56:20.861Z,10.02
2024-04-14T19:58:48.692Z,11.77
2024-04-14T20:04:04.294Z,10.90
2024-04-14T20:06:32.727Z,9.85
2024-04-14T20:09:01.005Z,9.60
2024-04-14T20:11:29.360Z,9.95
2024-04-14T20:13:57.675Z,8.52
2024-04-14T20:16:26.301Z,9.75
2024-04-14T20:19:01.368Z,9.55
2024-04-14T20:21:31.420Z,8.20
2024-04-14T20:24:03.345Z,10.00
2024-04-14T20:27:23.405Z,8.10
2024-04-14T20:30:07.150Z,8.32
2024-04-14T20:32:35.603Z,10.23
2024-04-14T20:35:05.029Z,9.68
2024-04-14T20:37:37.401Z,9.13
2024-04-14T20:40:16.543Z,9.40
2024-04-14T20:42:44.914Z,8.65
2024-04-14T20:45:16.116Z,9.95
2024-04-14T20:47:44.261Z,11.85
2024-04-14T20:50:13.647Z,10.70
2024-04-14T20:52:42.156Z,7.70
2024-04-14T20:55:11.436Z,10.45
2024-04-14T20:57:50.275Z,8.65
2024-04-14T21:00:22.610Z,9.95
2024-04-14T21:02:56.676Z,9.00
2024-04-14T21:05:26.134Z,8.80
2024-04-14T21:07:54.421Z,7.75
2024-04-14T21:10:22.958Z,8.23
2024-04-14T21:12:51.626Z,7.40
2024-04-14T21:15:24.675Z,9.85
2024-04-14T21:17:56.173Z,7.82
2024-04-14T21:20:26.192Z,8.07
2024-04-14T21:23:08.705Z,7.25
2024-04-14T21:25:36.708Z,8.63
2024-04-14T21:28:08.190Z,7.13
2024-04-14T21:30:42.917Z,6.80
2024-04-14T21:33:14.579Z,8.38
2024-04-14T21:35:43.387Z,9.27
2024-04-14T21:41:18.785Z,8.65
2024-04-14T21:43:50.359Z,8.05
2024-04-14T21:46:19.058Z,8.73
2024-04-14T21:48:56.801Z,7.80
2024-04-14T21:51:25.438Z,8.63
2024-04-14T21:53:54.251Z,9.68
2024-04-14T21:56:26.558Z,7.45
2024-04-14T21:58:56.250Z,8.90
2024-04-14T22:01:25.496Z,7.82
2024-04-14T22:04:05.145Z,7.90
2024-04-14T22:06:45.509Z,8.70
2024-04-14T22:09:21.306Z,7.85
2024-04-14T22:11:50.375Z,7.53
2024-04-14T22:14:21.603Z,7.35
2024-04-14T22:17:00.160Z,8.13
2024-04-14T22:19:29.087Z,7.70
2024-04-14T22:22:06.891Z,7.97
2024-04-14T22:24:36.039Z,8.68
2024-04-14T22:27:14.323Z,6.72
2024-04-14T22:29:43.018Z,8.23
2024-04-14T22:32:19.243Z,6.68
2024-04-14T22:34:48.050Z,9.57
2024-04-14T22:37:17.021Z,7.93
2024-04-14T22:39:55.983Z,7.75
2024-04-14T22:42:27.937Z,8.00
2024-04-14T22:44:56.855Z,8.88
2024-04-14T22:47:25.559Z,8.85
2024-04-14T22:50:24.192Z,7.50
2024-04-14T22:52:52.835Z,7.38
2024-04-14T22:58:06.014Z,7.93
2024-04-14T23:00:37.497Z,8.30
2024-04-14T23:03:15.060Z,6.95
2024-04-14T23:05:42.204Z,7.78
2024-04-14T23:08:09.124Z,8.55
2024-04-14T23:10:36.136Z,7.20
2024-04-14T23:13:03.662Z,7.03
2024-04-14T23:15:31.259Z,6.97
2024-04-14T23:17:58.406Z,7.35
2024-04-14T23:20:25.623Z,7.85
2024-04-14T23:22:53.034Z,8.85
2024-04-14T23:25:20.013Z,7.82
2024-04-14T23:27:47.260Z,7.43
2024-04-14T23:30:14.200Z,7.78
2024-04-14T23:32:41.190Z,6.82
2024-04-14T23:35:11.076Z,8.93
2024-04-14T23:37:37.959Z,6.65
2024-04-14T23:40:05.623Z,8.13
2024-04-14T23:42:32.689Z,6.68
2024-04-14T23:44:59.610Z,7.13
2024-04-14T23:47:26.590Z,7.77
2024-04-14T23:49:53.657Z,7.87
2024-04-14T23:52:21.172Z,8.77
2024-04-14T23:54:48.478Z,7.78
2024-04-14T23:57:15.483Z,7.95
2024-04-14T23:59:42.520Z,8.70
